sensor_id;sensor_type;location;lat;lon;timestamp;P1;durP1;ratioP1;P2;durP2;ratioP2
66663;SDS011;59683;51.428;-1.994;2023-11-21T00:01:15;5.50;;;1.07;;
66663;SDS011;59683;51.428;-1.994;2023-11-21T00:03:40;3.93;;;1.10;;
66663;SDS011;59683;51.428;-1.994;2023-11-21T00:06:06;2.87;;;0.90;;
66663;SDS011;59683;51.428;-1.994;2023-11-21T00:08:34;3.23;;;0.80;;
66663;SDS011;59683;51.428;-1.994;2023-11-21T00:11:00;4.00;;;0.70;;
66663;SDS011;59683;51.428;-1.994;2023-11-21T00:13:25;3.20;;;0.60;;
66663;SDS011;59683;51.428;-1.994;2023-11-21T00:15:51;2.77;;;0.80;;
66663;SDS011;59683;51.428;-1.994;2023-11-21T00:18:16;1.37;;;0.90;;
66663;SDS011;59683;51.428;-1.994;2023-11-21T00:20:41;3.00;;;0.80;;
66663;SDS011;59683;51.428;-1.994;2023-11-21T00:23:07;3.70;;;0.70;;
66663;SDS011;59683;51.428;-1.994;2023-11-21T00:25:34;6.07;;;1.00;;
66663;SDS011;59683;51.428;-1.994;2023-11-21T00:28:00;2.57;;;0.70;;
66663;SDS011;59683;51.428;-1.994;2023-11-21T00:30:26;5.43;;;0.70;;
66663;SDS011;59683;51.428;-1.994;2023-11-21T00:32:53;3.77;;;0.90;;
66663;SDS011;59683;51.428;-1.994;2023-11-21T00:35:19;4.30;;;0.77;;
66663;SDS011;59683;51.428;-1.994;2023-11-21T00:37:44;4.83;;;1.03;;
66663;SDS011;59683;51.428;-1.994;2023-11-21T00:40:10;3.63;;;1.33;;
66663;SDS011;59683;51.428;-1.994;2023-11-21T00:42:36;4.13;;;1.00;;
66663;SDS011;59683;51.428;-1.994;2023-11-21T00:45:01;3.50;;;1.23;;
66663;SDS011;59683;51.428;-1.994;2023-11-21T00:47:28;4.63;;;1.23;;
66663;SDS011;59683;51.428;-1.994;2023-11-21T00:49:53;3.93;;;0.97;;
66663;SDS011;59683;51.428;-1.994;2023-11-21T00:52:19;2.47;;;0.80;;
66663;SDS011;59683;51.428;-1.994;2023-11-21T00:54:45;6.83;;;1.10;;
66663;SDS011;59683;51.428;-1.994;2023-11-21T00:57:11;4.80;;;0.90;;
66663;SDS011;59683;51.428;-1.994;2023-11-21T00:59:37;4.50;;;0.70;;
66663;SDS011;59683;51.428;-1.994;2023-11-21T01:02:02;4.07;;;0.80;;
66663;SDS011;59683;51.428;-1.994;2023-11-21T01:04:29;4.73;;;1.10;;
66663;SDS011;59683;51.428;-1.994;2023-11-21T01:06:55;5.33;;;1.10;;
66663;SDS011;59683;51.428;-1.994;2023-11-21T01:09:20;2.93;;;1.13;;
66663;SDS011;59683;51.428;-1.994;2023-11-21T01:11:46;5.90;;;1.03;;
66663;SDS011;59683;51.428;-1.994;2023-11-21T01:14:11;4.40;;;1.10;;
66663;SDS011;59683;51.428;-1.994;2023-11-21T01:16:38;5.77;;;1.20;;
66663;SDS011;59683;51.428;-1.994;2023-11-21T01:19:03;5.07;;;1.17;;
66663;SDS011;59683;51.428;-1.994;2023-11-21T01:21:29;3.87;;;1.20;;
66663;SDS011;59683;51.428;-1.994;2023-11-21T01:23:55;15.80;;;3.00;;
66663;SDS011;59683;51.428;-1.994;2023-11-21T01:26:21;3.60;;;1.00;;
66663;SDS011;59683;51.428;-1.994;2023-11-21T01:28:46;7.50;;;1.40;;
66663;SDS011;59683;51.428;-1.994;2023-11-21T01:31:14;3.40;;;1.20;;
66663;SDS011;59683;51.428;-1.994;2023-11-21T01:33:40;2.30;;;1.10;;
66663;SDS011;59683;51.428;-1.994;2023-11-21T01:36:05;6.60;;;1.90;;
66663;SDS011;59683;51.428;-1.994;2023-11-21T01:38:31;5.47;;;1.40;;
66663;SDS011;59683;51.428;-1.994;2023-11-21T01:40:57;6.20;;;1.50;;
66663;SDS011;59683;51.428;-1.994;2023-11-21T01:43:22;6.03;;;1.80;;
66663;SDS011;59683;51.428;-1.994;2023-11-21T01:45:48;7.47;;;2.00;;
66663;SDS011;59683;51.428;-1.994;2023-11-21T01:48:13;7.20;;;1.93;;
66663;SDS011;59683;51.428;-1.994;2023-11-21T01:50:41;5.77;;;2.10;;
66663;SDS011;59683;51.428;-1.994;2023-11-21T01:53:07;5.13;;;2.00;;
66663;SDS011;59683;51.428;-1.994;2023-11-21T01:55:33;5.97;;;2.00;;
66663;SDS011;59683;51.428;-1.994;2023-11-21T01:57:59;7.17;;;1.97;;
66663;SDS011;59683;51.428;-1.994;2023-11-21T02:00:25;6.33;;;2.07;;
66663;SDS011;59683;51.428;-1.994;2023-11-21T02:02:53;6.13;;;2.10;;
66663;SDS011;59683;51.428;-1.994;2023-11-21T02:05:19;4.03;;;1.67;;
66663;SDS011;59683;51.428;-1.994;2023-11-21T02:07:46;7.53;;;2.00;;
66663;SDS011;59683;51.428;-1.994;2023-11-21T02:10:13;4.93;;;1.70;;
66663;SDS011;59683;51.428;-1.994;2023-11-21T02:12:40;5.87;;;1.87;;
66663;SDS011;59683;51.428;-1.994;2023-11-21T02:15:12;5.07;;;1.83;;
66663;SDS011;59683;51.428;-1.994;2023-11-21T02:17:56;9.07;;;2.10;;
66663;SDS011;59683;51.428;-1.994;2023-11-21T02:20:23;4.97;;;2.07;;
66663;SDS011;59683;51.428;-1.994;2023-11-21T02:22:50;10.70;;;1.70;;
66663;SDS011;59683;51.428;-1.994;2023-11-21T02:25:22;4.73;;;1.73;;
66663;SDS011;59683;51.428;-1.994;2023-11-21T02:27:52;5.50;;;1.52;;
66663;SDS011;59683;51.428;-1.994;2023-11-21T02:30:20;3.67;;;1.50;;
66663;SDS011;59683;51.428;-1.994;2023-11-21T02:32:47;5.73;;;1.83;;
66663;SDS011;59683;51.428;-1.994;2023-11-21T02:35:15;4.50;;;1.53;;
66663;SDS011;59683;51.428;-1.994;2023-11-21T02:37:46;6.93;;;2.87;;
66663;SDS011;59683;51.428;-1.994;2023-11-21T02:40:11;5.23;;;2.03;;
66663;SDS011;59683;51.428;-1.994;2023-11-21T02:42:37;5.33;;;2.10;;
66663;SDS011;59683;51.428;-1.994;2023-11-21T02:45:05;7.23;;;2.63;;
66663;SDS011;59683;51.428;-1.994;2023-11-21T02:47:31;5.10;;;2.60;;
66663;SDS011;59683;51.428;-1.994;2023-11-21T02:49:56;7.57;;;2.57;;
66663;SDS011;59683;51.428;-1.994;2023-11-21T02:52:22;9.30;;;3.03;;
66663;SDS011;59683;51.428;-1.994;2023-11-21T02:54:47;7.63;;;2.90;;
66663;SDS011;59683;51.428;-1.994;2023-11-21T02:57:13;6.17;;;2.90;;
66663;SDS011;59683;51.428;-1.994;2023-11-21T02:59:38;7.13;;;3.97;;
66663;SDS011;59683;51.428;-1.994;2023-11-21T03:02:04;7.00;;;3.80;;
66663;SDS011;59683;51.428;-1.994;2023-11-21T03:04:29;11.10;;;4.53;;
66663;SDS011;59683;51.428;-1.994;2023-11-21T03:06:57;9.43;;;4.50;;
66663;SDS011;59683;51.428;-1.994;2023-11-21T03:09:23;8.13;;;4.50;;
66663;SDS011;59683;51.428;-1.994;2023-11-21T03:11:48;12.70;;;5.37;;
66663;SDS011;59683;51.428;-1.994;2023-11-21T03:14:13;11.80;;;5.97;;
66663;SDS011;59683;51.428;-1.994;2023-11-21T03:16:39;11.70;;;5.63;;
66663;SDS011;59683;51.428;-1.994;2023-11-21T03:19:06;10.07;;;5.13;;
66663;SDS011;59683;51.428;-1.994;2023-11-21T03:21:33;15.07;;;7.10;;
66663;SDS011;59683;51.428;-1.994;2023-11-21T03:23:58;15.40;;;8.10;;
66663;SDS011;59683;51.428;-1.994;2023-11-21T03:26:25;12.97;;;7.60;;
66663;SDS011;59683;51.428;-1.994;2023-11-21T03:28:50;15.40;;;8.60;;
66663;SDS011;59683;51.428;-1.994;2023-11-21T03:31:18;18.37;;;8.33;;
66663;SDS011;59683;51.428;-1.994;2023-11-21T03:33:44;17.17;;;9.70;;
66663;SDS011;59683;51.428;-1.994;2023-11-21T03:36:10;15.87;;;9.53;;
66663;SDS011;59683;51.428;-1.994;2023-11-21T03:38:36;21.33;;;9.60;;
66663;SDS011;59683;51.428;-1.994;2023-11-21T03:41:02;18.40;;;10.23;;
66663;SDS011;59683;51.428;-1.994;2023-11-21T03:43:28;15.80;;;9.40;;
66663;SDS011;59683;51.428;-1.994;2023-11-21T03:45:53;18.03;;;9.70;;
66663;SDS011;59683;51.428;-1.994;2023-11-21T03:48:19;19.00;;;9.63;;
66663;SDS011;59683;51.428;-1.994;2023-11-21T03:50:45;17.27;;;9.70;;
66663;SDS011;59683;51.428;-1.994;2023-11-21T03:53:12;19.87;;;10.17;;
66663;SDS011;59683;51.428;-1.994;2023-11-21T03:55:37;17.93;;;10.03;;
66663;SDS011;59683;51.428;-1.994;2023-11-21T03:58:03;20.77;;;10.00;;
66663;SDS011;59683;51.428;-1.994;2023-11-21T04:00:28;15.77;;;9.60;;
66663;SDS011;59683;51.428;-1.994;2023-11-21T04:02:53;20.07;;;9.77;;
66663;SDS011;59683;51.428;-1.994;2023-11-21T04:05:19;17.07;;;9.23;;
66663;SDS011;59683;51.428;-1.994;2023-11-21T04:07:46;18.63;;;9.50;;
66663;SDS011;59683;51.428;-1.994;2023-11-21T04:10:11;18.03;;;9.23;;
66663;SDS011;59683;51.428;-1.994;2023-11-21T04:12:38;20.80;;;9.67;;
66663;SDS011;59683;51.428;-1.994;2023-11-21T04:15:04;14.77;;;9.40;;
66663;SDS011;59683;51.428;-1.994;2023-11-21T04:17:29;16.30;;;8.53;;
66663;SDS011;59683;51.428;-1.994;2023-11-21T04:19:55;17.00;;;8.43;;
66663;SDS011;59683;51.428;-1.994;2023-11-21T04:22:21;16.37;;;8.57;;
66663;SDS011;59683;51.428;-1.994;2023-11-21T04:24:46;15.17;;;9.13;;
66663;SDS011;59683;51.428;-1.994;2023-11-21T04:27:12;17.30;;;9.43;;
66663;SDS011;59683;51.428;-1.994;2023-11-21T04:29:38;16.73;;;9.30;;
66663;SDS011;59683;51.428;-1.994;2023-11-21T04:32:03;19.90;;;9.50;;
66663;SDS011;59683;51.428;-1.994;2023-11-21T04:34:29;13.60;;;8.73;;
66663;SDS011;59683;51.428;-1.994;2023-11-21T04:36:56;14.03;;;8.30;;
66663;SDS011;59683;51.428;-1.994;2023-11-21T04:39:22;13.27;;;8.07;;
66663;SDS011;59683;51.428;-1.994;2023-11-21T04:41:47;17.83;;;8.90;;
66663;SDS011;59683;51.428;-1.994;2023-11-21T04:44:12;15.80;;;8.90;;
66663;SDS011;59683;51.428;-1.994;2023-11-21T04:46:38;21.93;;;8.57;;
66663;SDS011;59683;51.428;-1.994;2023-11-21T04:49:03;14.20;;;8.50;;
66663;SDS011;59683;51.428;-1.994;2023-11-21T04:51:28;13.57;;;8.63;;
66663;SDS011;59683;51.428;-1.994;2023-11-21T04:53:54;11.70;;;7.17;;
66663;SDS011;59683;51.428;-1.994;2023-11-21T04:56:19;12.27;;;7.63;;
66663;SDS011;59683;51.428;-1.994;2023-11-21T04:58:45;12.23;;;7.83;;
66663;SDS011;59683;51.428;-1.994;2023-11-21T05:01:10;10.37;;;8.07;;
66663;SDS011;59683;51.428;-1.994;2023-11-21T05:03:36;12.07;;;6.90;;
66663;SDS011;59683;51.428;-1.994;2023-11-21T05:06:03;12.67;;;6.80;;
66663;SDS011;59683;51.428;-1.994;2023-11-21T05:08:30;10.33;;;6.50;;
66663;SDS011;59683;51.428;-1.994;2023-11-21T05:10:55;8.10;;;5.57;;
66663;SDS011;59683;51.428;-1.994;2023-11-21T05:13:21;9.90;;;6.33;;
66663;SDS011;59683;51.428;-1.994;2023-11-21T05:15:47;8.20;;;5.20;;
66663;SDS011;59683;51.428;-1.994;2023-11-21T05:18:12;8.10;;;5.40;;
66663;SDS011;59683;51.428;-1.994;2023-11-21T05:20:40;6.70;;;4.10;;
66663;SDS011;59683;51.428;-1.994;2023-11-21T05:23:07;5.73;;;3.83;;
66663;SDS011;59683;51.428;-1.994;2023-11-21T05:25:33;6.17;;;3.00;;
66663;SDS011;59683;51.428;-1.994;2023-11-21T05:27:59;7.13;;;2.95;;
66663;SDS011;59683;51.428;-1.994;2023-11-21T05:30:26;5.57;;;2.28;;
66663;SDS011;59683;51.428;-1.994;2023-11-21T05:32:52;6.97;;;2.60;;
66663;SDS011;59683;51.428;-1.994;2023-11-21T05:35:17;5.30;;;2.30;;
66663;SDS011;59683;51.428;-1.994;2023-11-21T05:37:43;4.47;;;2.00;;
66663;SDS011;59683;51.428;-1.994;2023-11-21T05:40:09;4.35;;;1.70;;
66663;SDS011;59683;51.428;-1.994;2023-11-21T05:42:35;2.03;;;1.23;;
66663;SDS011;59683;51.428;-1.994;2023-11-21T05:45:01;3.08;;;1.60;;
66663;SDS011;59683;51.428;-1.994;2023-11-21T05:50:09;2.90;;;1.10;;
66663;SDS011;59683;51.428;-1.994;2023-11-21T05:52:39;3.73;;;1.30;;
66663;SDS011;59683;51.428;-1.994;2023-11-21T05:55:05;2.20;;;0.70;;
66663;SDS011;59683;51.428;-1.994;2023-11-21T05:57:32;1.92;;;0.68;;
66663;SDS011;59683;51.428;-1.994;2023-11-21T06:00:01;1.55;;;0.70;;
66663;SDS011;59683;51.428;-1.994;2023-11-21T06:02:40;3.72;;;1.10;;
66663;SDS011;59683;51.428;-1.994;2023-11-21T06:05:09;4.53;;;1.20;;
66663;SDS011;59683;51.428;-1.994;2023-11-21T06:07:35;1.30;;;0.85;;
66663;SDS011;59683;51.428;-1.994;2023-11-21T06:10:07;2.60;;;0.90;;
66663;SDS011;59683;51.428;-1.994;2023-11-21T06:12:36;1.90;;;0.95;;
66663;SDS011;59683;51.428;-1.994;2023-11-21T06:15:04;3.07;;;0.80;;
66663;SDS011;59683;51.428;-1.994;2023-11-21T06:17:32;1.20;;;0.67;;
66663;SDS011;59683;51.428;-1.994;2023-11-21T06:19:57;3.07;;;0.80;;
66663;SDS011;59683;51.428;-1.994;2023-11-21T06:22:23;4.57;;;0.93;;
66663;SDS011;59683;51.428;-1.994;2023-11-21T06:24:48;2.30;;;0.70;;
66663;SDS011;59683;51.428;-1.994;2023-11-21T06:27:13;1.70;;;0.80;;
66663;SDS011;59683;51.428;-1.994;2023-11-21T06:29:39;1.43;;;0.73;;
66663;SDS011;59683;51.428;-1.994;2023-11-21T06:32:04;1.87;;;0.80;;
66663;SDS011;59683;51.428;-1.994;2023-11-21T06:34:30;2.17;;;0.53;;
66663;SDS011;59683;51.428;-1.994;2023-11-21T06:36:56;5.63;;;1.93;;
66663;SDS011;59683;51.428;-1.994;2023-11-21T06:39:21;3.70;;;0.67;;
66663;SDS011;59683;51.428;-1.994;2023-11-21T06:41:48;1.52;;;0.60;;
66663;SDS011;59683;51.428;-1.994;2023-11-21T06:44:15;1.15;;;0.50;;
66663;SDS011;59683;51.428;-1.994;2023-11-21T06:46:40;0.73;;;0.40;;
66663;SDS011;59683;51.428;-1.994;2023-11-21T06:49:07;0.60;;;0.50;;
66663;SDS011;59683;51.428;-1.994;2023-11-21T06:51:33;1.70;;;0.40;;
66663;SDS011;59683;51.428;-1.994;2023-11-21T06:53:58;1.67;;;0.50;;
66663;SDS011;59683;51.428;-1.994;2023-11-21T06:56:24;2.60;;;0.40;;
66663;SDS011;59683;51.428;-1.994;2023-11-21T06:58:49;0.90;;;0.40;;
66663;SDS011;59683;51.428;-1.994;2023-11-21T07:01:18;1.87;;;0.57;;
66663;SDS011;59683;51.428;-1.994;2023-11-21T07:03:44;1.37;;;0.50;;
66663;SDS011;59683;51.428;-1.994;2023-11-21T07:06:10;4.17;;;0.77;;
66663;SDS011;59683;51.428;-1.994;2023-11-21T07:08:36;0.77;;;0.33;;
66663;SDS011;59683;51.428;-1.994;2023-11-21T07:11:02;2.83;;;0.50;;
66663;SDS011;59683;51.428;-1.994;2023-11-21T07:13:28;3.65;;;0.40;;
66663;SDS011;59683;51.428;-1.994;2023-11-21T07:15:54;2.10;;;0.50;;
66663;SDS011;59683;51.428;-1.994;2023-11-21T07:18:19;3.47;;;0.57;;
66663;SDS011;59683;51.428;-1.994;2023-11-21T07:20:44;4.43;;;0.50;;
66663;SDS011;59683;51.428;-1.994;2023-11-21T07:23:10;1.30;;;0.40;;
66663;SDS011;59683;51.428;-1.994;2023-11-21T07:25:35;1.80;;;0.50;;
66663;SDS011;59683;51.428;-1.994;2023-11-21T07:28:01;3.53;;;0.50;;
66663;SDS011;59683;51.428;-1.994;2023-11-21T07:32:55;0.60;;;0.23;;
66663;SDS011;59683;51.428;-1.994;2023-11-21T07:35:20;0.60;;;0.30;;
66663;SDS011;59683;51.428;-1.994;2023-11-21T07:37:46;2.87;;;1.77;;
66663;SDS011;59683;51.428;-1.994;2023-11-21T07:40:12;1.02;;;0.55;;
66663;SDS011;59683;51.428;-1.994;2023-11-21T07:42:38;3.10;;;0.67;;
66663;SDS011;59683;51.428;-1.994;2023-11-21T07:45:04;1.17;;;0.40;;
66663;SDS011;59683;51.428;-1.994;2023-11-21T07:47:31;4.97;;;0.57;;
66663;SDS011;59683;51.428;-1.994;2023-11-21T07:49:59;1.45;;;0.43;;
66663;SDS011;59683;51.428;-1.994;2023-11-21T07:52:25;1.13;;;0.40;;
66663;SDS011;59683;51.428;-1.994;2023-11-21T07:54:50;1.23;;;0.40;;
66663;SDS011;59683;51.428;-1.994;2023-11-21T07:57:16;2.00;;;0.40;;
66663;SDS011;59683;51.428;-1.994;2023-11-21T07:59:41;3.27;;;0.70;;
66663;SDS011;59683;51.428;-1.994;2023-11-21T08:02:06;1.90;;;0.67;;
66663;SDS011;59683;51.428;-1.994;2023-11-21T08:04:32;1.53;;;0.57;;
66663;SDS011;59683;51.428;-1.994;2023-11-21T08:06:59;1.20;;;0.60;;
66663;SDS011;59683;51.428;-1.994;2023-11-21T08:09:24;1.33;;;0.43;;
66663;SDS011;59683;51.428;-1.994;2023-11-21T08:11:50;1.67;;;0.70;;
66663;SDS011;59683;51.428;-1.994;2023-11-21T08:14:17;3.85;;;0.60;;
66663;SDS011;59683;51.428;-1.994;2023-11-21T08:16:42;1.73;;;0.57;;
66663;SDS011;59683;51.428;-1.994;2023-11-21T08:19:07;1.20;;;0.37;;
66663;SDS011;59683;51.428;-1.994;2023-11-21T08:21:34;1.75;;;0.70;;
66663;SDS011;59683;51.428;-1.994;2023-11-21T08:24:01;4.25;;;0.80;;
66663;SDS011;59683;51.428;-1.994;2023-11-21T08:26:29;1.67;;;0.60;;
66663;SDS011;59683;51.428;-1.994;2023-11-21T08:28:54;4.87;;;0.63;;
66663;SDS011;59683;51.428;-1.994;2023-11-21T08:31:27;2.92;;;0.70;;
66663;SDS011;59683;51.428;-1.994;2023-11-21T08:33:53;2.00;;;0.60;;
66663;SDS011;59683;51.428;-1.994;2023-11-21T08:36:22;4.13;;;0.60;;
66663;SDS011;59683;51.428;-1.994;2023-11-21T08:38:49;3.30;;;0.77;;
66663;SDS011;59683;51.428;-1.994;2023-11-21T08:41:17;3.47;;;0.60;;
66663;SDS011;59683;51.428;-1.994;2023-11-21T08:43:42;1.53;;;0.77;;
66663;SDS011;59683;51.428;-1.994;2023-11-21T08:46:08;3.20;;;0.50;;
66663;SDS011;59683;51.428;-1.994;2023-11-21T08:48:37;5.10;;;0.90;;
66663;SDS011;59683;51.428;-1.994;2023-11-21T08:51:03;1.23;;;0.60;;
66663;SDS011;59683;51.428;-1.994;2023-11-21T08:53:29;1.90;;;0.70;;
66663;SDS011;59683;51.428;-1.994;2023-11-21T08:55:56;1.13;;;0.50;;
66663;SDS011;59683;51.428;-1.994;2023-11-21T08:58:22;4.75;;;0.90;;
66663;SDS011;59683;51.428;-1.994;2023-11-21T09:00:47;1.67;;;0.60;;
66663;SDS011;59683;51.428;-1.994;2023-11-21T09:03:13;3.80;;;0.93;;
66663;SDS011;59683;51.428;-1.994;2023-11-21T09:05:38;0.57;;;0.50;;
66663;SDS011;59683;51.428;-1.994;2023-11-21T09:08:05;2.93;;;0.80;;
66663;SDS011;59683;51.428;-1.994;2023-11-21T09:10:31;4.00;;;0.70;;
66663;SDS011;59683;51.428;-1.994;2023-11-21T09:13:00;1.77;;;0.70;;
66663;SDS011;59683;51.428;-1.994;2023-11-21T09:15:26;3.00;;;0.80;;
66663;SDS011;59683;51.428;-1.994;2023-11-21T09:17:52;2.23;;;0.60;;
66663;SDS011;59683;51.428;-1.994;2023-11-21T09:20:18;3.47;;;0.60;;
66663;SDS011;59683;51.428;-1.994;2023-11-21T09:22:43;2.53;;;0.80;;
66663;SDS011;59683;51.428;-1.994;2023-11-21T09:25:09;3.23;;;0.80;;
66663;SDS011;59683;51.428;-1.994;2023-11-21T09:27:35;7.33;;;0.80;;
66663;SDS011;59683;51.428;-1.994;2023-11-21T09:30:03;3.60;;;0.83;;
66663;SDS011;59683;51.428;-1.994;2023-11-21T09:32:34;4.43;;;0.77;;
66663;SDS011;59683;51.428;-1.994;2023-11-21T09:35:02;3.67;;;1.00;;
66663;SDS011;59683;51.428;-1.994;2023-11-21T09:37:27;10.17;;;1.30;;
66663;SDS011;59683;51.428;-1.994;2023-11-21T09:39:53;3.47;;;1.00;;
66663;SDS011;59683;51.428;-1.994;2023-11-21T09:42:21;2.80;;;1.03;;
66663;SDS011;59683;51.428;-1.994;2023-11-21T09:44:52;1.33;;;0.70;;
66663;SDS011;59683;51.428;-1.994;2023-11-21T09:47:24;3.03;;;0.70;;
66663;SDS011;59683;51.428;-1.994;2023-11-21T09:49:49;3.67;;;0.70;;
66663;SDS011;59683;51.428;-1.994;2023-11-21T09:52:25;2.10;;;0.80;;
66663;SDS011;59683;51.428;-1.994;2023-11-21T09:54:52;2.53;;;0.67;;
66663;SDS011;59683;51.428;-1.994;2023-11-21T09:57:19;7.10;;;0.80;;
66663;SDS011;59683;51.428;-1.994;2023-11-21T09:59:49;2.45;;;0.90;;
66663;SDS011;59683;51.428;-1.994;2023-11-21T10:02:17;1.70;;;1.00;;
66663;SDS011;59683;51.428;-1.994;2023-11-21T10:04:44;5.03;;;1.13;;
66663;SDS011;59683;51.428;-1.994;2023-11-21T10:07:10;4.13;;;1.37;;
66663;SDS011;59683;51.428;-1.994;2023-11-21T10:09:37;2.67;;;0.90;;
66663;SDS011;59683;51.428;-1.994;2023-11-21T10:12:03;1.97;;;0.90;;
66663;SDS011;59683;51.428;-1.994;2023-11-21T10:14:33;4.53;;;1.23;;
66663;SDS011;59683;51.428;-1.994;2023-11-21T10:17:02;3.77;;;0.97;;
66663;SDS011;59683;51.428;-1.994;2023-11-21T10:19:28;1.87;;;0.90;;
66663;SDS011;59683;51.428;-1.994;2023-11-21T10:21:54;2.10;;;0.73;;
66663;SDS011;59683;51.428;-1.994;2023-11-21T10:24:22;2.30;;;0.90;;
66663;SDS011;59683;51.428;-1.994;2023-11-21T10:26:48;1.80;;;0.90;;
66663;SDS011;59683;51.428;-1.994;2023-11-21T10:29:13;4.13;;;0.80;;
66663;SDS011;59683;51.428;-1.994;2023-11-21T10:31:41;4.20;;;0.90;;
66663;SDS011;59683;51.428;-1.994;2023-11-21T10:34:17;4.80;;;1.13;;
66663;SDS011;59683;51.428;-1.994;2023-11-21T10:36:43;4.30;;;0.83;;
66663;SDS011;59683;51.428;-1.994;2023-11-21T10:39:13;2.63;;;0.90;;
66663;SDS011;59683;51.428;-1.994;2023-11-21T10:41:43;2.27;;;1.10;;
66663;SDS011;59683;51.428;-1.994;2023-11-21T10:44:10;3.00;;;0.80;;
66663;SDS011;59683;51.428;-1.994;2023-11-21T10:46:36;1.63;;;0.90;;
66663;SDS011;59683;51.428;-1.994;2023-11-21T10:49:01;3.40;;;0.90;;
66663;SDS011;59683;51.428;-1.994;2023-11-21T10:51:27;2.53;;;0.80;;
66663;SDS011;59683;51.428;-1.994;2023-11-21T10:53:53;2.60;;;0.90;;
66663;SDS011;59683;51.428;-1.994;2023-11-21T10:56:19;3.47;;;1.10;;
66663;SDS011;59683;51.428;-1.994;2023-11-21T10:58:51;2.70;;;0.80;;
66663;SDS011;59683;51.428;-1.994;2023-11-21T11:01:17;3.73;;;0.63;;
66663;SDS011;59683;51.428;-1.994;2023-11-21T11:03:46;1.70;;;0.83;;
66663;SDS011;59683;51.428;-1.994;2023-11-21T11:06:12;1.00;;;0.70;;
66663;SDS011;59683;51.428;-1.994;2023-11-21T11:08:40;3.93;;;1.20;;
66663;SDS011;59683;51.428;-1.994;2023-11-21T11:11:06;3.57;;;1.00;;
66663;SDS011;59683;51.428;-1.994;2023-11-21T11:13:32;2.97;;;0.73;;
66663;SDS011;59683;51.428;-1.994;2023-11-21T11:15:58;1.40;;;0.80;;
66663;SDS011;59683;51.428;-1.994;2023-11-21T11:18:30;3.00;;;0.77;;
66663;SDS011;59683;51.428;-1.994;2023-11-21T11:21:01;4.50;;;0.97;;
66663;SDS011;59683;51.428;-1.994;2023-11-21T11:28:47;2.50;;;1.07;;
66663;SDS011;59683;51.428;-1.994;2023-11-21T11:36:49;2.10;;;0.90;;
66663;SDS011;59683;51.428;-1.994;2023-11-21T11:39:30;3.47;;;0.77;;
66663;SDS011;59683;51.428;-1.994;2023-11-21T11:42:01;4.43;;;1.17;;
66663;SDS011;59683;51.428;-1.994;2023-11-21T11:47:14;2.67;;;0.93;;
66663;SDS011;59683;51.428;-1.994;2023-11-21T11:52:42;1.97;;;0.93;;
66663;SDS011;59683;51.428;-1.994;2023-11-21T11:55:08;2.90;;;1.00;;
66663;SDS011;59683;51.428;-1.994;2023-11-21T11:57:43;2.73;;;1.20;;
66663;SDS011;59683;51.428;-1.994;2023-11-21T12:02:53;2.33;;;0.93;;
66663;SDS011;59683;51.428;-1.994;2023-11-21T12:05:22;2.03;;;1.10;;
66663;SDS011;59683;51.428;-1.994;2023-11-21T12:10:20;2.20;;;0.97;;
66663;SDS011;59683;51.428;-1.994;2023-11-21T12:12:50;2.73;;;1.00;;
66663;SDS011;59683;51.428;-1.994;2023-11-21T12:15:17;2.37;;;1.30;;
66663;SDS011;59683;51.428;-1.994;2023-11-21T12:17:44;3.87;;;0.90;;
66663;SDS011;59683;51.428;-1.994;2023-11-21T12:20:10;2.70;;;1.07;;
66663;SDS011;59683;51.428;-1.994;2023-11-21T12:22:43;1.67;;;0.85;;
66663;SDS011;59683;51.428;-1.994;2023-11-21T12:25:15;3.97;;;1.10;;
66663;SDS011;59683;51.428;-1.994;2023-11-21T12:27:50;3.03;;;1.80;;
66663;SDS011;59683;51.428;-1.994;2023-11-21T12:30:17;2.37;;;1.07;;
66663;SDS011;59683;51.428;-1.994;2023-11-21T12:32:44;3.67;;;1.10;;
66663;SDS011;59683;51.428;-1.994;2023-11-21T12:35:12;2.23;;;0.90;;
66663;SDS011;59683;51.428;-1.994;2023-11-21T12:37:38;1.73;;;0.90;;
66663;SDS011;59683;51.428;-1.994;2023-11-21T12:40:05;2.43;;;0.93;;
66663;SDS011;59683;51.428;-1.994;2023-11-21T12:42:33;2.90;;;1.13;;
66663;SDS011;59683;51.428;-1.994;2023-11-21T12:48:00;5.63;;;1.00;;
66663;SDS011;59683;51.428;-1.994;2023-11-21T12:50:29;6.77;;;1.10;;
66663;SDS011;59683;51.428;-1.994;2023-11-21T12:52:59;3.15;;;0.90;;
66663;SDS011;59683;51.428;-1.994;2023-11-21T12:55:29;5.03;;;1.03;;
66663;SDS011;59683;51.428;-1.994;2023-11-21T12:57:56;3.17;;;1.00;;
66663;SDS011;59683;51.428;-1.994;2023-11-21T13:00:31;3.37;;;1.40;;
66663;SDS011;59683;51.428;-1.994;2023-11-21T13:03:02;3.13;;;1.20;;
66663;SDS011;59683;51.428;-1.994;2023-11-21T13:05:29;3.37;;;1.00;;
66663;SDS011;59683;51.428;-1.994;2023-11-21T13:07:57;2.77;;;1.00;;
66663;SDS011;59683;51.428;-1.994;2023-11-21T13:10:25;9.80;;;2.30;;
66663;SDS011;59683;51.428;-1.994;2023-11-21T13:12:55;3.47;;;1.37;;
66663;SDS011;59683;51.428;-1.994;2023-11-21T13:15:25;5.73;;;2.07;;
66663;SDS011;59683;51.428;-1.994;2023-11-21T13:17:51;10.90;;;1.70;;
66663;SDS011;59683;51.428;-1.994;2023-11-21T13:20:18;3.37;;;1.20;;
66663;SDS011;59683;51.428;-1.994;2023-11-21T13:23:06;4.73;;;1.07;;
66663;SDS011;59683;51.428;-1.994;2023-11-21T13:25:33;5.30;;;1.20;;
66663;SDS011;59683;51.428;-1.994;2023-11-21T13:27:59;9.97;;;1.50;;
66663;SDS011;59683;51.428;-1.994;2023-11-21T13:30:28;6.63;;;1.10;;
66663;SDS011;59683;51.428;-1.994;2023-11-21T13:33:01;4.97;;;1.07;;
66663;SDS011;59683;51.428;-1.994;2023-11-21T13:35:30;2.55;;;1.10;;
66663;SDS011;59683;51.428;-1.994;2023-11-21T13:38:02;2.30;;;0.90;;
66663;SDS011;59683;51.428;-1.994;2023-11-21T13:40:37;5.40;;;1.40;;
66663;SDS011;59683;51.428;-1.994;2023-11-21T13:43:17;5.00;;;2.10;;
66663;SDS011;59683;51.428;-1.994;2023-11-21T13:45:45;4.83;;;1.63;;
66663;SDS011;59683;51.428;-1.994;2023-11-21T13:48:11;5.50;;;2.23;;
66663;SDS011;59683;51.428;-1.994;2023-11-21T13:50:44;9.40;;;2.27;;
66663;SDS011;59683;51.428;-1.994;2023-11-21T13:53:13;4.33;;;1.27;;
66663;SDS011;59683;51.428;-1.994;2023-11-21T13:55:48;5.73;;;1.70;;
66663;SDS011;59683;51.428;-1.994;2023-11-21T13:58:19;1.83;;;1.00;;
66663;SDS011;59683;51.428;-1.994;2023-11-21T14:00:51;4.70;;;1.30;;
66663;SDS011;59683;51.428;-1.994;2023-11-21T14:03:27;5.33;;;1.77;;
66663;SDS011;59683;51.428;-1.994;2023-11-21T14:06:04;11.90;;;2.53;;
66663;SDS011;59683;51.428;-1.994;2023-11-21T14:08:39;5.23;;;1.80;;
66663;SDS011;59683;51.428;-1.994;2023-11-21T14:11:06;8.07;;;2.17;;
66663;SDS011;59683;51.428;-1.994;2023-11-21T14:13:32;8.13;;;1.80;;
66663;SDS011;59683;51.428;-1.994;2023-11-21T14:15:58;7.70;;;2.00;;
66663;SDS011;59683;51.428;-1.994;2023-11-21T14:18:26;7.50;;;2.23;;
66663;SDS011;59683;51.428;-1.994;2023-11-21T14:21:06;5.10;;;0.93;;
66663;SDS011;59683;51.428;-1.994;2023-11-21T14:23:33;1.23;;;0.60;;
66663;SDS011;59683;51.428;-1.994;2023-11-21T14:26:00;3.40;;;1.00;;
66663;SDS011;59683;51.428;-1.994;2023-11-21T14:28:26;6.37;;;1.07;;
66663;SDS011;59683;51.428;-1.994;2023-11-21T14:30:51;3.97;;;1.10;;
66663;SDS011;59683;51.428;-1.994;2023-11-21T14:33:17;4.47;;;1.00;;
66663;SDS011;59683;51.428;-1.994;2023-11-21T14:35:42;2.80;;;1.20;;
66663;SDS011;59683;51.428;-1.994;2023-11-21T14:38:08;8.70;;;1.20;;
66663;SDS011;59683;51.428;-1.994;2023-11-21T14:40:35;4.73;;;1.20;;
66663;SDS011;59683;51.428;-1.994;2023-11-21T14:43:03;3.33;;;1.00;;
66663;SDS011;59683;51.428;-1.994;2023-11-21T14:45:32;6.60;;;1.00;;
66663;SDS011;59683;51.428;-1.994;2023-11-21T14:47:59;3.37;;;1.27;;
66663;SDS011;59683;51.428;-1.994;2023-11-21T14:50:41;5.93;;;1.63;;
66663;SDS011;59683;51.428;-1.994;2023-11-21T14:53:07;6.57;;;1.90;;
66663;SDS011;59683;51.428;-1.994;2023-11-21T14:55:37;6.35;;;1.35;;
66663;SDS011;59683;51.428;-1.994;2023-11-21T14:58:21;4.90;;;1.10;;
66663;SDS011;59683;51.428;-1.994;2023-11-21T15:00:56;3.77;;;1.10;;
66663;SDS011;59683;51.428;-1.994;2023-11-21T15:03:23;8.60;;;2.20;;